Boulder City, Nevada Weather observations

Data are for observation ending at time listed.
 Day   Time    Ave.   Ave.  Ave.  Vector   Max.   Stn.    Total    Solar   Ave.  
  of    of     Air    Rel.  Wind   Wind    Wind   Baro.  Precip.   Rad.    Soil  
Year   Day     Temp.  Hum.  Speed  Dir.    Gust   Pres.                    Temp. 
2026   (PST)    F      %     mph   deg.    mph     mb.     in.     W/m2     F   
------------------------------------------------------------------------------
 243   11:00   93.3    24    8.3   118     18.0   931.4    0.00     829    95.5
 243   11:10   92.8    24   10.8   108     23.9   931.3    0.00     825    95.7
 243   11:20   93.5    24    8.9   123     24.6   931.1    0.00     862    95.9
 243   11:30   94.5    22   10.4   153     19.7   931.1    0.00     888    96.2
 243   11:40   94.9    22    9.3   150     17.6   930.8    0.00     895    96.3
 243   11:50   94.8    21    9.8   134     23.9   930.7    0.00     924    96.6
 243   12:00   94.6    21   11.8   152     22.6   930.6    0.00     681    96.7
 243   12:10   95.1    21   10.8   143     26.5   930.5    0.00     661    97.1
 243   12:20   95.0    21   11.1   145     24.0   930.4    0.00     906    97.4
 243   12:30   94.9    21   13.8   170     26.4   930.2    0.00     378    97.6
 243   12:40   94.2    21   11.1   158     23.2   930.1    0.00     480    97.9
 243   12:50   94.5    21   10.9   156     25.7   930.0    0.00     558    98.1
 243   13:00   95.1    20   11.8   154     27.2   929.8    0.00     808    98.3
 243   13:10   95.9    20   10.3   147     28.5   929.8    0.00     814    98.4
 243   13:20   95.4    20   11.2   153     29.8   929.8    0.00     487    98.7
 243   13:30   94.1    21    8.6   138     24.1   929.6    0.00     327    98.8
 243   13:40   94.2    21    9.6   152     21.9   929.4    0.00     455    99.0
 243   13:50   95.2    20   10.7   143     25.1   929.1    0.00     776    99.2
 243   14:00   95.0    21    9.7   128     27.5   929.2    0.00     611    99.3
 243   14:10   95.4    21   11.2   154     29.6   929.2    0.00     355    99.4
 243   14:20   95.1    20   11.4   150     24.9   929.1    0.00     596    99.6
 243   14:30   96.2    20    9.6   141     22.5   928.9    0.00     595    99.5
 243   14:40   94.9    21   11.1   158     26.6   928.8    0.00     211    99.7
 243   14:50   93.9    21    9.9   144     21.1   928.7    0.00     246    99.7
 243   15:00   94.6    21    9.1   157     25.8   928.5    0.00     502    99.7
 243   15:10   95.1    21    9.3   145     20.8   928.4    0.00     488    99.8
 243   15:20   95.2    21    9.5   153     20.0   928.4    0.00     416    100.0
 243   15:30   94.4    21   10.7   137     25.1   928.4    0.00     331    99.9
 243   15:40   95.5    20    7.2   144     20.2   928.3    0.00     469    100.1
 243   15:50   95.3    20    7.9   136     17.6   928.4    0.00     356    100.1
 243   16:00   94.7    22    9.9   141     21.9   928.3    0.00     348    100.0
 243   16:10   94.5    22   11.5   151     27.2   928.2    0.00     268    100.0
 243   16:20   93.6    22    9.5   139     23.3   928.0    0.00      77    100.0
 243   16:30   93.2    22    8.8   150     21.6   928.0    0.00     109    100.1
 243   16:40   93.7    21    9.9   153     22.1   927.9    0.00     194    100.0
 243   16:50   93.5    21    8.3   156     18.0   927.8    0.00     139    100.0
 243   17:00   93.8    22    8.0   145     19.7   927.8    0.00     162    100.0
 243   17:10   93.3    22    8.1   151     17.3   927.8    0.00     136    100.0
 243   17:20   93.1    23    9.2   152     23.4   927.8    0.00     119    100.0
 243   17:30   92.8    24    8.2   143     20.0   927.7    0.00      84    99.8
 243   17:40   91.9    26    9.7   150     25.5   927.7    0.00      43    99.8
 243   17:50   91.7    26    9.6   164     22.1   927.7    0.00      25    99.8
 243   18:00   91.4    26   10.9   164     21.3   927.8    0.00      17    99.6
 243   18:10   91.1    26    8.1   162     17.8   927.9    0.00       9    99.6
 243   18:20   90.7    28    7.8   172     16.2   928.0    0.00       2    99.5
 243   18:30   90.3    29    7.4   163     16.4   928.1    0.00       0    99.4
 243   18:40   90.0    29    6.7   169     15.1   928.1    0.00       0    99.4
 243   18:50   89.8    29    9.8   168     19.1   928.2    0.00       0    99.2
 243   19:00   89.6    29    7.6   179     15.7   928.3    0.00       0    99.1
 243   19:10   89.4    28    7.9   171     16.5   928.4    0.00       0    99.0
 243   19:20   89.2    28    7.9   167     18.6   928.5    0.00       0    98.9
 243   19:30   89.0    29    7.1   176     15.3   928.6    0.00       0    98.8
 243   19:40   88.7    30    7.2   176     14.6   928.7    0.00       0    98.7
 243   19:50   88.2    31    7.3   178     16.7   928.9    0.00       0    98.6
 243   20:00   87.9    31    7.3   178     13.7   929.0    0.00       0    98.4
 243   20:10   87.6    31    6.2   177     14.5   929.0    0.00       0    98.4
 243   20:20   87.1    31    8.1   174     15.5   929.1    0.00       0    98.4
 243   20:30   87.0    30    8.1   184     19.0   929.2    0.00       0    98.1
 243   20:40   86.8    29    6.7   186     12.9   929.3    0.00       0    98.1
 243   20:50   86.5    29    6.3   211     11.0   929.4    0.00       0    98.0
 243   21:00   86.1    30    5.8   224     14.2   929.5    0.00       0    97.9
 243   21:10   86.0    30    4.9   195      8.9   929.5    0.00       0    97.8
 243   21:20   85.8    30    5.4   173     11.7   929.7    0.00       0    97.6
 243   21:30   85.6    30    5.2   180     12.6   929.7    0.00       0    97.6
 243   21:40   85.3    31    6.9   214     14.9   929.8    0.00       0    97.5
 243   21:50   84.8    32    6.3   217     10.4   929.7    0.00       0    97.4
 243   22:00   84.7    32    7.9   209     13.4   929.7    0.00       0    97.3
 243   22:10   84.6    32    7.5   209     12.9   929.7    0.00       0    97.1
 243   22:20   84.2    33    7.1   204     12.5   929.7    0.00       0    96.8
 243   22:30   83.9    33    6.8   210     12.1   929.7    0.00       0    96.9
 243   22:40   83.3    34    6.3   217     10.1   929.8    0.00       0    96.7
 243   22:50   82.9    35    5.5   203     11.2   929.8    0.00       0    96.6
 243   23:00   82.9    35    6.5   184     10.7   929.8    0.00       0    96.5
 243   23:10   82.9    36    7.5   177     12.2   929.8    0.00       0    96.3
 243   23:20   82.8    36    7.7   174     15.3   929.9    0.00       0    96.3
 243   23:30   82.8    36    6.9   163     12.3   930.0    0.00       0    96.1
 243   23:40   82.6    36    8.0   158     15.4   930.0    0.00       0    96.0
 243   23:50   82.4    36    6.9   169     13.2   930.1    0.00       0    95.9
 244    0:00   82.1    36    6.7   166     11.5   930.2    0.00       0    95.8
 244    0:10   81.9    36    7.3   166     12.5   930.2    0.00       0    95.7
 244    0:20   81.7    37    6.8   164     14.0   930.1    0.00       0    95.7
 244    0:30   81.5    37    5.2   168     11.8   930.1    0.00       0    95.5
 244    0:40   81.4    37    3.6   164      9.7   930.1    0.00       0    95.4
 244    0:50   81.1    38    3.7   170      7.8   930.0    0.00       0    95.3
 244    1:00   81.0    37    5.9   176      9.7   930.0    0.00       0    95.2
 244    1:10   81.1    38    6.3   176      9.9   930.0    0.00       0    95.1
 244    1:20   80.7    40    5.6   189      8.0   930.0    0.00       0    94.9
 244    1:30   80.3    41    6.7   182     10.8   930.0    0.00       0    94.9
 244    1:40   80.4    42    6.7   173     13.4   930.0    0.00       0    94.7
 244    1:50   80.2    44    5.4   175     10.9   930.0    0.00       0    94.7
 244    2:00   80.1    46    6.1   173     14.8   930.1    0.00       0    94.5
 244    2:10   80.0    46    5.6   174     12.0   930.2    0.00       0    94.4
 244    2:20   79.9    46    5.4   182     10.4   930.3    0.00       0    94.4
 244    2:30   79.5    47    4.0   210      6.6   930.3    0.00       0    94.2
 244    2:40   78.7    47    3.8   221      8.1   930.3    0.00       0    94.1
 244    2:50   78.9    47    5.1   209     10.6   930.2    0.00       0    93.9
 244    3:00   79.0    46    6.6   226     11.2   930.3    0.00       0    94.0
 244    3:10   78.9    46    6.0   228     11.8   930.3    0.00       0    93.8
 244    3:20   78.3    46    4.6   227     10.7   930.3    0.00       0    93.7
 244    3:30   78.2    46    4.7   237      7.8   930.3    0.00       0    93.6
 244    3:40   78.2    47    4.3   224      7.4   930.3    0.00       0    93.6
 244    3:50   78.6    47    5.9   195     13.9   930.4    0.00       0    93.5
 244    4:00   78.9    47    6.1   196      9.5   930.4    0.00       0    93.5
 244    4:10   78.6    48    5.2   207      9.4   930.5    0.00       0    93.3
 244    4:20   78.5    49    6.9   204     11.2   930.5    0.00       0    93.1
 244    4:30   78.5    49    7.4   171     14.8   930.5    0.00       0    93.1
 244    4:40   78.4    50    6.0   199     12.9   930.5    0.00       0    93.0
 244    4:50   77.6    50    3.2   215      5.8   930.5    0.00       0    92.9
 244    5:00   77.4    50    4.0   200      8.0   930.5    0.00       0    92.7
 244    5:10   77.5    50    4.3   210      7.7   930.4    0.00       2    92.7
 244    5:20   77.3    50    3.4   226      5.1   930.5    0.00       5    92.7
 244    5:30   76.6    51    3.1   237      5.1   930.6    0.00      12    92.5
 244    5:40   76.6    51    3.6   228      6.2   930.7    0.00      44    92.4
 244    5:50   77.2    50    3.4   231      6.1   930.7    0.00      51    92.3
 244    6:00   77.4    48    3.9   219      6.5   930.8    0.00      73    92.3
 244    6:10   78.0    42    4.0   212      7.0   931.0    0.00      89    92.1
 244    6:20   78.2    41    3.1   192      5.2   931.1    0.00      70    92.1
 244    6:30   78.7    41    3.6   178      6.3   931.2    0.00     172    92.0
 244    6:40   79.9    40    4.1   184      6.8   931.2    0.00     248    91.9
 244    6:50   80.4    40    4.8   208      8.2   931.3    0.00     287    91.8
 244    7:00   80.5    41    5.4   219      9.9   931.4    0.00     301    91.7
 244    7:10   80.7    43    5.9   211      9.4   931.6    0.00     335    91.7
 244    7:20   81.4    42    5.1   210      9.6   931.7    0.00     391    91.5
 244    7:30   81.8    42    6.4   210     11.4   931.8    0.00     425    91.6
 244    7:40   82.7    41    6.8   187     11.8   931.9    0.00     457    91.5
 244    7:50   83.1    41    6.4   188     10.4   931.9    0.00     487    91.4
 244    8:00   83.8    41    7.0   178     11.5   932.0    0.00     512    91.3
 244    8:10   84.0    41    5.9   202      9.9   932.1    0.00     547    91.3
 244    8:20   84.2    40    6.1   198     12.3   932.2    0.00     618    91.5
 244    8:30   85.8    38    4.7   173     11.9   932.3    0.00     647    91.5
 244    8:40   86.1    37    7.5   155     16.0   932.4    0.00     634    91.5
 244    8:50   86.3    37    6.9   132     15.0   932.4    0.00     657    91.6
 244    9:00   85.9    38    7.0   142     16.2   932.2    0.00     680    91.8
 244    9:10   86.0    36    8.4   161     17.0   932.4    0.00     473    91.2
 244    9:20   87.3    30   13.1   164     23.6   932.4    0.00     732    93.8
 244    9:30   88.4    28   10.8   168     19.9   932.3    0.00     758    95.3
 244    9:40   88.7    27   12.1   159     22.4   932.3    0.00     501    94.4
 244    9:50   88.5    26   12.8   160     27.2   932.2    0.00      72    94.0
 244   10:00   89.3    24   12.6   159     23.3   932.0    0.00     351    95.3
 244   10:10   89.9    24   12.8   176     22.6   932.1    0.00     510    96.0
 244   10:20   89.7    24   13.2   160     23.2   932.1    0.00     569    97.5
 244   10:30   90.4    22   11.1   157     23.2   932.0    0.00     580    106.4
 244   10:40   91.1    22   10.9   173     21.0   932.2    0.00     854    97.1
 244   10:50   91.3    22   10.2   160     15.3   932.1    0.00     935    93.8

Return to Boulder City, Nevada graphs page.


Western Regional Climate Center,wrcc@dri.edu